Time;durP1;ratioP1;P1;durP2;ratioP2;P2;SDS_P1;SDS_P2;PMS_P1;PMS_P2;Temp;Humidity;BMP_temperature;BMP_pressure;BME280_temperature;BME280_humidity;BME280_pressure;Samples;Min_cycle;Max_cycle;Signal;HPM_P1;HPM_P2
2021/08/29 00:00:13;;;;;;;9.60;5.42;;;;;;;16.43;70.09;99000.53;1870606;76;22138;-62
2021/08/29 00:03:06;;;;;;;7.97;5.10;;;;;;;16.39;70.63;99006.23;1870598;76;22547;-63
2021/08/29 00:05:41;;;;;;;8.98;5.70;;;;;;;16.32;71.01;98993.30;1870616;76;22177;-62
2021/08/29 00:08:17;;;;;;;8.50;5.50;;;;;;;16.25;71.37;99001.17;1870615;76;22158;-61
2021/08/29 00:10:51;;;;;;;7.80;5.00;;;;;;;16.20;71.54;99004.27;1870719;76;22109;-65
2021/08/29 00:13:27;;;;;;;7.70;4.95;;;;;;;16.15;71.69;99003.45;1870696;76;22611;-63
2021/08/29 00:16:01;;;;;;;6.37;4.30;;;;;;;16.13;71.86;99001.33;1870710;76;22116;-64
2021/08/29 00:18:36;;;;;;;9.08;5.30;;;;;;;16.11;71.85;99008.29;1870621;76;22181;-61
2021/08/29 00:21:11;;;;;;;7.78;5.15;;;;;;;16.13;71.93;99007.84;1889954;76;22584;-62
2021/08/29 00:23:48;;;;;;;8.98;5.60;;;;;;;16.13;72.03;99005.23;1890054;76;22143;-63
2021/08/29 00:26:42;;;;;;;7.83;4.80;;;;;;;16.13;72.23;99004.34;1870667;76;22535;-58
2021/08/29 00:29:17;;;;;;;11.33;6.12;;;;;;;16.11;72.76;99008.73;1870617;76;22559;-55
2021/08/29 00:31:52;;;;;;;11.30;6.17;;;;;;;16.07;73.51;99003.98;1870604;76;22144;-55
2021/08/29 00:34:27;;;;;;;7.83;5.58;;;;;;;16.04;74.70;99001.42;1889981;76;22187;-60
2021/08/29 00:37:22;;;;;;;10.58;6.78;;;;;;;16.04;75.19;98990.56;1870501;76;22136;-59
2021/08/29 00:39:57;;;;;;;11.03;6.50;;;;;;;16.06;75.58;98983.60;1870696;76;22109;-55
2021/08/29 00:42:32;;;;;;;12.53;6.83;;;;;;;16.09;75.89;98981.41;1870696;76;22541;-55
2021/08/29 00:45:26;;;;;;;13.03;7.45;;;;;;;16.10;75.96;98990.07;1889962;76;22104;-57
2021/08/29 00:48:01;;;;;;;10.05;7.03;;;;;;;16.04;76.11;99001.42;1873929;76;28321;-56
2021/08/29 00:50:40;;;;;;;10.20;6.53;;;;;;;16.08;76.40;99003.13;1870709;76;22169;-56
2021/08/29 00:53:35;;;;;;;11.15;6.83;;;;;;;16.08;76.59;99008.33;1870662;76;22144;-59
2021/08/29 00:56:11;;;;;;;10.68;7.65;;;;;;;16.08;76.93;99003.13;1854661;76;38213;-56
2021/08/29 00:59:06;;;;;;;11.22;7.40;;;;;;;16.18;77.24;98996.94;1854820;76;27919;-56
2021/08/29 01:01:49;;;;;;;10.93;7.17;;;;;;;16.22;77.22;98992.55;1870698;76;22105;-59
2021/08/29 01:05:09;;;;;;;9.08;5.97;;;;;;;16.26;77.62;98984.69;1875264;76;22189;-58
2021/08/29 01:08:04;;;;;;;10.15;6.65;;;;;;;16.28;78.40;98982.04;1870551;76;22117;-55
2021/08/29 01:11:05;;;;;;;8.35;5.90;;;;;;;16.31;78.32;98987.66;1870680;76;22172;-58
2021/08/29 01:14:04;;;;;;;9.18;6.60;;;;;;;16.32;78.67;98981.59;1889938;76;22167;-59
2021/08/29 01:17:01;;;;;;;9.88;6.47;;;;;;;16.33;78.83;98972.87;1870631;76;22145;-56
2021/08/29 01:20:41;;;;;;;10.18;7.22;;;;;;;16.36;78.96;98967.62;1869789;76;22239;-54
2021/08/29 01:23:19;;;;;;;9.83;6.87;;;;;;;16.37;78.98;98974.58;1870684;76;22113;-60
2021/08/29 01:26:05;;;;;;;11.28;6.33;;;;;;;16.39;78.99;98974.13;1870711;76;22193;-57
2021/08/29 01:29:05;;;;;;;9.00;6.50;;;;;;;16.44;79.06;98977.53;1870567;76;22573;-59
2021/08/29 01:31:45;;;;;;;8.70;6.37;;;;;;;16.50;78.82;98994.37;1870686;76;22523;-59
2021/08/29 01:34:40;;;;;;;10.28;6.62;;;;;;;16.49;78.71;98995.27;1870681;76;22121;-59
2021/08/29 01:37:39;;;;;;;10.95;7.33;;;;;;;16.43;78.69;98999.23;1870639;76;22500;-54
2021/08/29 01:40:16;;;;;;;8.60;6.25;;;;;;;16.40;78.72;98991.02;1870447;76;22128;-59
2021/08/29 01:42:51;;;;;;;10.50;7.20;;;;;;;16.39;78.71;98988.00;1889971;76;22136;-56
2021/08/29 01:45:29;;;;;;;9.95;7.37;;;;;;;16.41;78.57;98977.55;1854633;76;27903;-59
2021/08/29 01:48:05;;;;;;;10.50;7.67;;;;;;;16.46;78.54;98973.14;1870688;76;22105;-56
2021/08/29 01:51:02;;;;;;;9.93;7.50;;;;;;;16.48;78.42;98978.75;1854970;76;28319;-59
2021/08/29 01:53:38;;;;;;;10.18;7.05;;;;;;;16.54;78.33;98984.35;1889967;76;22647;-55
2021/08/29 01:56:12;;;;;;;10.82;8.13;;;;;;;16.57;78.07;98983.45;1874046;76;27909;-59
2021/08/29 01:58:47;;;;;;;11.08;7.37;;;;;;;16.63;77.90;98975.53;1890001;76;22189;-56
2021/08/29 02:01:52;;;;;;;8.83;7.25;;;;;;;16.64;77.65;98979.44;1869786;76;22574;-56
2021/08/29 02:04:46;;;;;;;11.63;7.20;;;;;;;16.65;77.51;98990.27;1870679;76;22120;-57
2021/08/29 02:07:39;;;;;;;11.68;8.18;;;;;;;16.61;77.05;98989.91;1870467;76;22129;-56
2021/08/29 02:10:34;;;;;;;10.40;7.35;;;;;;;16.67;77.35;98991.11;1870539;76;22133;-52
2021/08/29 02:13:34;;;;;;;14.20;8.38;;;;;;;16.67;77.08;98996.78;1870668;76;22160;-57
2021/08/29 02:16:28;;;;;;;12.73;8.58;;;;;;;16.70;77.29;99001.49;1870696;76;22105;-61
2021/08/29 02:19:27;;;;;;;13.00;8.50;;;;;;;16.64;77.52;99002.89;1889918;76;22147;-57
2021/08/29 02:22:22;;;;;;;12.80;9.68;;;;;;;16.57;77.79;99009.05;1889884;76;22538;-61
2021/08/29 02:24:57;;;;;;;10.98;7.37;;;;;;;16.54;77.91;98992.58;1870792;76;22101;-60
2021/08/29 02:27:53;;;;;;;12.10;9.08;;;;;;;16.56;78.02;98992.98;1870680;76;22133;-59
2021/08/29 02:30:28;;;;;;;11.73;8.50;;;;;;;16.57;78.15;98989.52;1873890;76;27894;-60
2021/08/29 02:33:03;;;;;;;10.85;8.13;;;;;;;16.64;77.98;98985.09;1870786;76;22563;-57
2021/08/29 02:35:45;;;;;;;12.30;8.48;;;;;;;16.68;77.87;98991.52;1869846;76;22137;-55
2021/08/29 02:38:44;;;;;;;14.43;7.97;;;;;;;16.69;77.86;98993.27;1870650;76;22120;-56
2021/08/29 02:41:19;;;;;;;12.55;8.13;;;;;;;16.65;77.90;98992.88;1870721;76;22129;-57
2021/08/29 02:43:56;;;;;;;10.28;7.47;;;;;;;16.63;78.04;98994.63;1874016;76;27803;-60
2021/08/29 02:46:31;;;;;;;12.55;7.40;;;;;;;16.67;78.05;98990.27;1870733;76;22105;-53
2021/08/29 02:49:06;;;;;;;12.68;7.67;;;;;;;16.66;77.98;98997.22;1870724;76;22157;-56
2021/08/29 02:51:41;;;;;;;13.53;7.85;;;;;;;16.67;77.97;98998.08;1889990;76;22523;-53
2021/08/29 02:54:19;;;;;;;10.40;7.83;;;;;;;16.66;78.04;98995.03;1873937;76;27922;-53
2021/08/29 02:57:15;;;;;;;8.75;6.70;;;;;;;16.62;78.12;98999.44;1870635;76;23722;-59
2021/08/29 02:59:50;;;;;;;10.25;7.58;;;;;;;16.67;78.00;98996.33;1870716;76;20098;-57
2021/08/29 03:02:25;;;;;;;14.07;8.10;;;;;;;16.66;78.15;98988.52;1874000;76;28372;-60
2021/08/29 03:05:00;;;;;;;10.93;7.58;;;;;;;16.71;78.05;98990.20;1870783;76;22550;-57
2021/08/29 03:07:36;;;;;;;11.80;8.10;;;;;;;16.72;77.97;98989.76;1889978;76;22555;-58
2021/08/29 03:10:32;;;;;;;11.48;7.75;;;;;;;16.60;78.35;98989.47;1870674;76;22608;-54
2021/08/29 03:13:28;;;;;;;11.63;7.33;;;;;;;16.64;78.21;98983.34;1870560;76;20098;-59
2021/08/29 03:16:04;;;;;;;11.50;8.48;;;;;;;16.61;78.29;98977.30;1870632;76;22187;-56
2021/08/29 03:18:39;;;;;;;12.28;7.55;;;;;;;16.60;78.38;98983.40;1870731;76;22160;-57
2021/08/29 03:21:15;;;;;;;12.45;8.73;;;;;;;16.58;78.41;98978.64;1889962;76;22619;-59
2021/08/29 03:23:51;;;;;;;13.58;9.38;;;;;;;16.61;78.67;98979.90;1873921;76;28005;-57
2021/08/29 03:26:45;;;;;;;12.23;8.03;;;;;;;16.66;78.43;98980.70;1889965;76;22132;-57
2021/08/29 03:29:26;;;;;;;12.75;7.67;;;;;;;16.57;78.26;98984.75;1869845;76;22105;-59
2021/08/29 03:32:21;;;;;;;11.28;6.92;;;;;;;16.57;77.96;98980.39;1870747;76;22540;-57
2021/08/29 03:35:17;;;;;;;14.35;7.15;;;;;;;16.63;78.00;98976.39;1870628;76;22120;-59
2021/08/29 03:37:53;;;;;;;14.25;6.97;;;;;;;16.66;77.82;98973.77;1889999;76;22104;-56
2021/08/29 03:40:29;;;;;;;11.95;7.17;;;;;;;16.65;77.69;98969.42;1870630;76;22555;-56
2021/08/29 03:43:31;;;;;;;12.85;7.28;;;;;;;16.68;77.59;98967.22;1890226;76;22603;-60
2021/08/29 03:46:06;;;;;;;11.25;7.37;;;;;;;16.69;77.60;98972.42;1854919;76;27904;-57
2021/08/29 03:49:03;;;;;;;9.90;6.60;;;;;;;16.73;77.58;98966.71;1889935;76;22528;-53
2021/08/29 03:51:41;;;;;;;13.05;7.00;;;;;;;16.74;77.36;98965.84;1870642;76;22128;-57
2021/08/29 03:54:15;;;;;;;9.58;6.45;;;;;;;16.74;77.30;98967.16;1871005;76;22120;-58
2021/08/29 03:56:51;;;;;;;10.63;6.58;;;;;;;16.74;77.07;98958.03;1873919;76;27897;-57
2021/08/29 03:59:26;;;;;;;11.18;6.37;;;;;;;16.81;76.77;98953.61;1873930;76;27924;-57
2021/08/29 04:02:22;;;;;;;10.23;6.50;;;;;;;16.86;76.51;98942.67;1854702;76;29469;-55
2021/08/29 04:05:19;;;;;;;9.63;6.00;;;;;;;16.89;76.33;98940.90;1870441;76;22153;-60
2021/08/29 04:07:57;;;;;;;9.55;6.65;;;;;;;16.88;76.31;98934.39;1854812;76;27854;-56
2021/08/29 04:10:53;;;;;;;9.25;6.05;;;;;;;16.91;76.17;98936.94;1870665;76;22113;-59
2021/08/29 04:13:47;;;;;;;11.45;6.22;;;;;;;16.87;76.34;98930.08;1870635;76;22121;-58
2021/08/29 04:16:23;;;;;;;9.43;6.12;;;;;;;16.85;76.50;98932.69;1870690;76;22137;-57
2021/08/29 04:19:00;;;;;;;12.37;6.33;;;;;;;16.84;76.36;98931.40;1854801;76;27946;-59
2021/08/29 04:21:36;;;;;;;9.90;5.50;;;;;;;16.93;76.15;98932.58;1870518;76;22164;-56
2021/08/29 04:24:51;;;;;;;10.82;5.60;;;;;;;17.04;75.78;98928.04;1874166;75;22177;-56
2021/08/29 04:27:38;;;;;;;7.90;4.72;;;;;;;17.12;75.24;98927.50;1870609;76;22157;-58
2021/08/29 04:30:33;;;;;;;9.88;4.62;;;;;;;17.17;74.91;98928.70;1870730;76;22097;-58
2021/08/29 04:33:27;;;;;;;6.67;4.37;;;;;;;17.22;74.42;98923.42;1870607;76;22145;-58
2021/08/29 04:36:08;;;;;;;7.08;4.00;;;;;;;17.26;74.01;98938.14;1870481;76;22161;-58
2021/08/29 04:39:06;;;;;;;7.10;4.53;;;;;;;17.38;73.91;98943.58;1870680;76;22121;-56
2021/08/29 04:42:00;;;;;;;7.87;4.33;;;;;;;17.45;73.54;98943.45;1889926;76;22175;-56
2021/08/29 04:44:54;;;;;;;6.25;4.08;;;;;;;17.58;72.81;98934.55;1889904;76;22145;-58
2021/08/29 04:47:48;;;;;;;7.33;4.15;;;;;;;17.68;72.79;98937.85;1870678;76;22113;-57
2021/08/29 04:50:23;;;;;;;5.70;3.62;;;;;;;17.74;72.49;98931.66;1889978;76;22523;-56
2021/08/29 04:52:57;;;;;;;8.85;3.95;;;;;;;17.88;71.97;98941.85;1870659;76;22133;-57
2021/08/29 04:55:32;;;;;;;8.05;3.87;;;;;;;18.03;71.07;98940.70;1889954;76;22184;-59
2021/08/29 04:58:13;;;;;;;4.95;3.17;;;;;;;18.13;70.73;98936.56;1889929;76;22193;-55
2021/08/29 05:00:48;;;;;;;5.40;3.20;;;;;;;18.18;70.35;98924.27;1870689;76;22148;-59
2021/08/29 05:03:23;;;;;;;6.33;3.27;;;;;;;18.26;70.19;98912.81;1870665;76;22129;-58
2021/08/29 05:06:20;;;;;;;6.35;2.80;;;;;;;18.23;69.51;98913.73;1889899;76;22568;-56
2021/08/29 05:08:55;;;;;;;8.08;2.75;;;;;;;18.22;69.29;98924.63;1889979;76;22529;-62
2021/08/29 05:11:29;;;;;;;4.17;2.15;;;;;;;18.17;69.25;98926.94;1870693;76;24361;-59
2021/08/29 05:14:11;;;;;;;7.60;2.25;;;;;;;18.13;69.35;98926.57;1869844;76;22169;-58
2021/08/29 05:16:47;;;;;;;4.42;2.33;;;;;;;18.13;69.40;98928.73;1870456;76;22165;-52
2021/08/29 05:19:22;;;;;;;6.42;2.30;;;;;;;18.07;69.67;98929.32;1870689;76;22133;-58
2021/08/29 05:22:24;;;;;;;5.10;2.65;;;;;;;18.04;69.95;98916.30;1869665;76;22563;-54
2021/08/29 05:24:59;;;;;;;4.22;2.12;;;;;;;18.05;69.92;98929.78;1870683;76;22527;-57
2021/08/29 05:27:34;;;;;;;4.08;2.40;;;;;;;18.08;69.83;98915.36;1870675;76;22140;-57
2021/08/29 05:30:11;;;;;;;5.08;2.20;;;;;;;18.13;69.75;98914.37;1870691;76;22141;-58
2021/08/29 05:32:44;;;;;;;6.15;2.30;;;;;;;18.17;69.56;98911.27;1854943;76;27938;-60
2021/08/29 05:35:19;;;;;;;4.67;2.02;;;;;;;18.22;69.37;98918.56;1889954;76;22132;-59
2021/08/29 05:38:15;;;;;;;5.08;2.40;;;;;;;18.22;69.23;98910.27;1854522;76;27922;-61
2021/08/29 05:40:49;;;;;;;6.58;2.30;;;;;;;18.32;69.06;98912.25;1890066;76;22104;-57
2021/08/29 05:43:24;;;;;;;6.40;2.10;;;;;;;18.36;69.02;98916.50;1889970;76;22527;-57
2021/08/29 05:45:59;;;;;;;8.73;2.60;;;;;;;18.42;68.58;98916.83;1870686;76;22101;-60
2021/08/29 05:48:33;;;;;;;4.10;2.22;;;;;;;18.52;68.50;98913.55;1870696;76;22580;-54
2021/08/29 05:51:28;;;;;;;4.20;2.08;;;;;;;18.93;67.32;98910.47;1870646;76;22141;-62
2021/08/29 05:54:03;;;;;;;4.17;2.10;;;;;;;19.27;66.20;98902.20;1870719;76;22136;-57
2021/08/29 05:56:39;;;;;;;5.08;2.20;;;;;;;20.06;64.08;98898.83;1854630;76;27908;-57
2021/08/29 05:59:32;;;;;;;5.33;2.15;;;;;;;21.13;60.97;98906.50;1889699;76;22140;-62
2021/08/29 06:02:07;;;;;;;4.30;2.10;;;;;;;21.20;59.84;98894.91;1870625;76;22137;-63
2021/08/29 06:04:44;;;;;;;4.35;2.22;;;;;;;21.36;59.51;98896.55;1870211;76;22168;-61
2021/08/29 06:07:18;;;;;;;6.20;2.15;;;;;;;21.61;58.72;98899.22;1869784;76;22224;-61
2021/08/29 06:09:53;;;;;;;6.10;2.62;;;;;;;22.51;57.19;98892.42;1861391;76;22155;-62
2021/08/29 06:12:28;;;;;;;3.83;2.25;;;;;;;23.22;53.68;98891.78;1852935;76;22151;-63
2021/08/29 06:15:06;;;;;;;4.50;2.62;;;;;;;23.38;52.87;98883.65;1855245;76;22172;-63
2021/08/29 06:18:01;;;;;;;6.15;2.42;;;;;;;22.97;53.18;98894.56;1865263;76;22546;-62
2021/08/29 06:20:36;;;;;;;6.03;2.30;;;;;;;22.62;54.00;98897.25;1861129;76;22154;-65
2021/08/29 06:23:31;;;;;;;4.78;2.65;;;;;;;22.11;54.93;98886.03;1843551;76;28203;-61
2021/08/29 06:26:06;;;;;;;4.97;2.77;;;;;;;21.58;56.04;98880.95;1852977;76;22552;-63
2021/08/29 06:28:49;;;;;;;6.45;2.37;;;;;;;20.99;57.95;98875.02;1851702;76;22169;-64
2021/08/29 06:31:23;;;;;;;7.10;2.70;;;;;;;20.58;59.24;98877.20;1855657;76;20113;-60
2021/08/29 06:34:28;;;;;;;8.13;2.77;;;;;;;20.22;60.64;98867.80;1852557;76;22216;-60
2021/08/29 06:37:27;;;;;;;5.05;2.80;;;;;;;19.98;62.06;98872.00;1855112;76;22566;-64
2021/08/29 06:40:02;;;;;;;5.53;2.30;;;;;;;19.83;62.84;98866.75;1861873;76;22218;-62
2021/08/29 06:42:44;;;;;;;5.37;2.30;;;;;;;19.68;63.35;98868.02;1870660;76;22199;-63
2021/08/29 06:45:20;;;;;;;6.03;2.75;;;;;;;19.52;63.89;98871.03;1863625;76;22160;-60
2021/08/29 06:47:56;;;;;;;7.25;2.85;;;;;;;19.35;64.40;98868.00;1849220;76;27983;-61
2021/08/29 06:50:31;;;;;;;5.62;2.72;;;;;;;19.30;64.89;98866.80;1856914;76;22682;-61
2021/08/29 06:53:06;;;;;;;5.65;3.22;;;;;;;19.26;65.52;98874.34;1846707;76;28409;-63
2021/08/29 06:55:42;;;;;;;6.85;2.95;;;;;;;19.32;65.74;98863.30;1850012;76;28428;-64
2021/08/29 06:58:23;;;;;;;8.55;2.80;;;;;;;19.38;65.72;98869.22;1861489;76;22646;-59
2021/08/29 07:00:58;;;;;;;6.67;3.05;;;;;;;19.38;65.93;98870.52;1836352;76;28014;-63
2021/08/29 07:03:34;;;;;;;4.45;2.95;;;;;;;19.42;65.78;98875.25;1851785;76;22594;-61
2021/08/29 07:06:08;;;;;;;9.58;3.60;;;;;;;19.42;65.96;98870.02;1848909;76;22192;-59
2021/08/29 07:09:41;;;;;;;5.70;3.02;;;;;;;19.43;66.25;98871.72;1850770;75;22303;-62
2021/08/29 07:12:16;;;;;;;4.83;2.80;;;;;;;19.40;66.34;98867.88;1862196;76;22595;-59
2021/08/29 07:14:51;;;;;;;4.35;2.80;;;;;;;19.38;66.61;98863.13;1852761;76;22199;-59
2021/08/29 07:17:32;;;;;;;7.87;3.08;;;;;;;19.36;66.96;98847.91;1863296;76;22765;-63
2021/08/29 07:20:10;;;;;;;5.85;2.87;;;;;;;19.33;67.05;98846.23;1855040;76;22587;-59
2021/08/29 07:23:24;;;;;;;7.00;3.50;;;;;;;19.29;67.25;98837.63;1837439;76;28020;-61
2021/08/29 07:26:08;;;;;;;5.62;3.40;;;;;;;19.30;67.49;98834.09;1870543;76;22641;-63
2021/08/29 07:29:21;;;;;;;6.40;3.20;;;;;;;19.23;67.31;98837.80;1853593;76;22205;-61
2021/08/29 07:31:56;;;;;;;5.45;3.70;;;;;;;19.20;67.51;98842.23;1850645;76;27915;-63
2021/08/29 07:34:53;;;;;;;8.13;3.65;;;;;;;19.23;67.62;98841.72;1855865;76;22567;-61
2021/08/29 07:37:49;;;;;;;6.35;2.92;;;;;;;19.21;67.93;98839.59;1854701;76;28338;-63
2021/08/29 07:40:23;;;;;;;7.15;3.47;;;;;;;19.28;67.87;98839.84;1870744;76;22108;-61
2021/08/29 07:42:58;;;;;;;4.58;2.85;;;;;;;19.28;67.57;98833.72;1870692;76;22139;-62
2021/08/29 07:45:40;;;;;;;6.40;2.60;;;;;;;19.30;67.80;98831.48;1857183;76;22257;-64
2021/08/29 07:48:16;;;;;;;6.97;3.00;;;;;;;19.35;67.59;98830.05;1854578;76;27934;-61
2021/08/29 07:50:57;;;;;;;6.95;2.67;;;;;;;19.50;67.23;98826.16;1867479;76;22202;-58
2021/08/29 07:53:56;;;;;;;7.55;2.65;;;;;;;19.57;66.50;98819.87;1859291;76;22156;-59
2021/08/29 07:56:30;;;;;;;5.12;2.85;;;;;;;19.73;66.46;98815.93;1890108;76;22546;-64
2021/08/29 07:59:06;;;;;;;6.83;3.15;;;;;;;20.05;65.89;98810.64;1850303;76;28369;-60
2021/08/29 08:02:01;;;;;;;5.33;2.52;;;;;;;20.41;64.20;98809.98;1870600;76;22169;-60
2021/08/29 08:04:36;;;;;;;5.25;2.60;;;;;;;20.61;63.65;98815.95;1854248;76;28075;-60
2021/08/29 08:07:12;;;;;;;5.40;2.50;;;;;;;20.91;63.09;98814.52;1870574;76;22179;-62
2021/08/29 08:09:47;;;;;;;9.48;2.60;;;;;;;21.00;61.69;98819.00;1890042;76;22155;-59
2021/08/29 08:12:22;;;;;;;4.20;2.60;;;;;;;20.91;61.54;98811.43;1890001;76;22239;-58
2021/08/29 08:15:05;;;;;;;4.78;2.67;;;;;;;20.85;61.81;98810.34;1869822;76;22169;-56
2021/08/29 08:17:59;;;;;;;8.93;3.00;;;;;;;20.97;61.94;98805.14;1854858;76;28342;-60
2021/08/29 08:20:34;;;;;;;6.62;2.77;;;;;;;21.20;60.89;98806.98;1870654;76;22165;-61
2021/08/29 08:23:08;;;;;;;7.62;2.75;;;;;;;21.31;59.93;98802.20;1870707;76;22109;-60
2021/08/29 08:25:43;;;;;;;4.72;2.33;;;;;;;21.30;60.18;98786.52;1889992;76;22579;-60
2021/08/29 08:28:18;;;;;;;7.20;2.75;;;;;;;21.44;59.06;98782.96;1889982;76;22565;-59
2021/08/29 08:30:59;;;;;;;8.90;2.10;;;;;;;21.76;58.47;98776.99;1889986;76;22166;-58
2021/08/29 08:33:36;;;;;;;6.70;2.27;;;;;;;22.48;56.49;98780.77;1889943;76;22135;-62
2021/08/29 08:36:11;;;;;;;3.85;2.22;;;;;;;22.76;55.44;98775.23;1870609;76;22555;-61
2021/08/29 08:38:46;;;;;;;5.37;2.83;;;;;;;22.71;54.20;98762.27;1854662;76;28473;-61
2021/08/29 08:41:21;;;;;;;3.55;2.17;;;;;;;22.71;54.65;98770.16;1870806;76;22108;-62
2021/08/29 08:44:36;;;;;;;4.97;2.22;;;;;;;22.78;54.24;98777.81;1870446;76;22189;-58
2021/08/29 08:47:49;;;;;;;5.97;2.20;;;;;;;22.71;54.33;98771.47;1870574;76;22175;-56
2021/08/29 08:50:25;;;;;;;3.85;2.40;;;;;;;22.68;54.51;98772.08;1870801;76;22133;-56
2021/08/29 08:53:42;;;;;;;8.73;2.50;;;;;;;22.50;54.98;98766.64;1870762;76;22132;-61
2021/08/29 08:56:20;;;;;;;4.40;2.30;;;;;;;22.40;55.36;98763.99;1890013;76;22554;-58
2021/08/29 08:59:33;;;;;;;5.15;2.50;;;;;;;22.66;55.61;98749.77;1870601;76;22152;-58
2021/08/29 09:02:09;;;;;;;10.88;2.37;;;;;;;23.16;54.11;98743.30;1870452;76;22197;-59
2021/08/29 09:04:44;;;;;;;4.97;2.45;;;;;;;23.62;52.42;98745.19;1890002;76;22127;-59
2021/08/29 09:07:20;;;;;;;6.92;2.55;;;;;;;23.75;51.98;98737.14;1870424;76;22147;-59
2021/08/29 09:10:14;;;;;;;7.62;2.77;;;;;;;23.70;51.73;98732.98;1889901;76;22131;-63
2021/08/29 09:12:56;;;;;;;5.08;2.60;;;;;;;23.80;51.91;98724.60;1870654;76;22132;-60
2021/08/29 09:16:14;;;;;;;4.22;2.50;;;;;;;24.01;51.03;98724.52;1870671;76;22164;-64
2021/08/29 09:19:02;;;;;;;4.85;2.90;;;;;;;24.05;51.38;98729.57;1854994;76;27872;-61
2021/08/29 09:21:39;;;;;;;6.53;3.52;;;;;;;23.89;51.45;98729.92;1870515;76;22162;-62
2021/08/29 09:24:19;;;;;;;5.37;3.22;;;;;;;23.76;52.13;98714.27;1869843;76;22157;-59
2021/08/29 09:26:59;;;;;;;5.37;3.15;;;;;;;23.61;53.00;98716.68;1873947;76;27905;-62
2021/08/29 09:29:38;;;;;;;5.80;2.75;;;;;;;23.60;52.95;98714.11;1870697;76;22137;-57
2021/08/29 09:32:18;;;;;;;5.70;2.80;;;;;;;23.37;53.74;98717.79;1890098;76;22131;-59
2021/08/29 09:34:59;;;;;;;8.10;2.80;;;;;;;23.28;54.01;98713.80;1870681;76;22131;-58
2021/08/29 09:37:58;;;;;;;7.70;3.25;;;;;;;23.37;54.16;98712.05;1889950;76;22128;-59
2021/08/29 09:40:38;;;;;;;5.35;3.08;;;;;;;23.57;54.09;98715.10;1835173;77;22215;-63
2021/08/29 09:43:14;;;;;;;11.20;3.45;;;;;;;23.78;53.50;98709.32;1870695;76;22110;-60
2021/08/29 09:46:08;;;;;;;5.00;2.60;;;;;;;23.74;53.74;98705.61;1890001;76;22124;-59
2021/08/29 09:49:07;;;;;;;7.20;3.10;;;;;;;23.71;54.05;98702.63;1870714;76;22108;-62
2021/08/29 09:51:48;;;;;;;4.95;2.70;;;;;;;23.72;54.40;98695.56;1870666;76;22145;-60
2021/08/29 09:54:37;;;;;;;7.55;3.60;;;;;;;23.83;54.73;98686.23;1870495;76;22536;-57
2021/08/29 09:57:39;;;;;;;5.45;3.10;;;;;;;23.99;54.30;98687.70;1890017;76;22173;-62
2021/08/29 10:00:30;;;;;;;6.08;3.30;;;;;;;24.10;54.14;98681.05;1889986;76;22193;-57
2021/08/29 10:03:06;;;;;;;5.50;3.15;;;;;;;24.08;54.15;98673.67;1870707;76;22120;-64
2021/08/29 10:05:41;;;;;;;6.53;3.40;;;;;;;24.08;54.61;98686.86;1890116;76;22139;-62
2021/08/29 10:08:16;;;;;;;6.70;3.42;;;;;;;24.15;54.41;98673.30;1870644;76;22160;-61
2021/08/29 10:11:13;;;;;;;5.67;3.10;;;;;;;24.11;54.59;98669.09;1854672;76;28079;-63
2021/08/29 10:14:10;;;;;;;8.65;3.37;;;;;;;24.19;54.75;98660.81;1889943;76;22140;-61
2021/08/29 10:16:46;;;;;;;5.45;2.98;;;;;;;24.34;54.98;98656.56;1870685;76;22153;-64
2021/08/29 10:19:21;;;;;;;6.20;3.55;;;;;;;24.52;54.55;98656.12;1854799;76;27904;-61
2021/08/29 10:22:36;;;;;;;4.95;3.47;;;;;;;24.78;54.33;98652.14;1870730;76;22144;-59
2021/08/29 10:25:32;;;;;;;6.62;3.50;;;;;;;24.93;53.67;98646.05;1889930;76;20096;-63
2021/08/29 10:29:07;;;;;;;7.62;3.52;;;;;;;24.85;53.81;98653.05;1870652;76;22547;-59
2021/08/29 10:31:49;;;;;;;7.42;3.67;;;;;;;24.70;54.15;98653.85;1870494;76;22164;-60
2021/08/29 10:34:47;;;;;;;5.70;3.45;;;;;;;24.59;54.71;98636.41;1889922;76;22586;-61
2021/08/29 10:37:44;;;;;;;6.40;3.40;;;;;;;24.52;55.20;98644.25;1870690;76;22157;-58
2021/08/29 10:40:19;;;;;;;5.95;3.30;;;;;;;24.55;55.01;98642.33;1870657;76;22101;-59
2021/08/29 10:43:21;;;;;;;7.80;4.33;;;;;;;24.53;55.48;98636.75;1889859;76;22140;-63
2021/08/29 10:45:57;;;;;;;6.70;4.10;;;;;;;24.64;55.58;98638.35;1870667;76;22540;-62
2021/08/29 10:48:40;;;;;;;9.13;4.00;;;;;;;24.77;54.93;98634.13;1890084;76;22244;-62
2021/08/29 10:51:36;;;;;;;6.72;3.70;;;;;;;24.74;55.15;98636.94;1870634;76;22136;-56
2021/08/29 10:54:14;;;;;;;8.18;4.10;;;;;;;24.69;55.42;98617.86;1873934;76;28114;-62
2021/08/29 10:57:38;;;;;;;8.25;3.90;;;;;;;24.70;55.53;98624.83;1870665;76;22121;-60
2021/08/29 11:00:26;;;;;;;7.47;3.58;;;;;;;24.74;55.64;98627.70;1864859;76;22194;-63
2021/08/29 11:03:28;;;;;;;9.10;3.80;;;;;;;24.83;55.75;98624.59;1889971;76;22171;-61
2021/08/29 11:06:03;;;;;;;7.30;4.20;;;;;;;24.78;55.76;98617.38;1854791;76;27918;-57
2021/08/29 11:08:38;;;;;;;7.00;3.83;;;;;;;24.64;56.13;98619.41;1854584;76;28377;-60
2021/08/29 11:11:18;;;;;;;7.72;3.80;;;;;;;24.61;55.97;98607.70;1870429;76;22164;-61
2021/08/29 11:13:53;;;;;;;8.48;4.10;;;;;;;24.54;56.37;98598.87;1870613;76;22141;-62
2021/08/29 11:16:29;;;;;;;15.48;4.15;;;;;;;24.53;56.48;98589.26;1889887;76;22192;-61
2021/08/29 11:19:08;;;;;;;7.75;4.33;;;;;;;24.51;56.80;98589.80;1870416;76;22168;-58
2021/08/29 11:22:08;;;;;;;8.20;4.47;;;;;;;24.45;56.85;98585.23;1872582;76;22200;-57
2021/08/29 11:25:07;;;;;;;7.12;4.53;;;;;;;24.34;57.28;98571.69;1870462;76;22172;-61
2021/08/29 11:27:44;;;;;;;6.33;3.92;;;;;;;24.42;57.25;98572.61;1870536;76;22109;-60
2021/08/29 11:30:52;;;;;;;8.95;4.47;;;;;;;24.57;57.07;98574.48;1870646;76;22136;-64
2021/08/29 11:33:28;;;;;;;6.37;4.30;;;;;;;24.67;56.94;98571.74;1870473;76;22143;-60
2021/08/29 11:36:04;;;;;;;14.75;4.70;;;;;;;24.76;56.74;98577.02;1870616;76;22144;-58
2021/08/29 11:38:39;;;;;;;8.63;4.50;;;;;;;24.89;56.54;98583.34;1870672;76;22109;-60
2021/08/29 11:41:17;;;;;;;7.33;4.47;;;;;;;25.04;56.08;98575.54;1873853;76;27937;-58
2021/08/29 11:43:52;;;;;;;10.55;5.12;;;;;;;25.23;55.88;98575.41;1870684;76;22555;-61
2021/08/29 11:46:51;;;;;;;8.35;5.12;;;;;;;25.35;55.42;98576.05;1889949;76;20539;-56
2021/08/29 11:49:28;;;;;;;6.67;5.12;;;;;;;25.48;54.92;98565.64;1870476;76;22555;-58
2021/08/29 11:52:04;;;;;;;6.50;4.22;;;;;;;25.62;54.55;98563.09;1870644;76;22105;-61
2021/08/29 11:54:39;;;;;;;8.68;5.28;;;;;;;25.76;54.51;98565.77;1870780;76;22551;-57
2021/08/29 11:57:54;;;;;;;10.90;5.30;;;;;;;25.84;53.88;98565.33;1889913;76;22554;-57
2021/08/29 12:00:32;;;;;;;8.73;5.17;;;;;;;25.74;54.20;98563.67;1873865;76;27887;-60
2021/08/29 12:03:07;;;;;;;8.88;5.20;;;;;;;25.67;54.64;98556.19;1870661;76;22519;-56
2021/08/29 12:06:15;;;;;;;7.65;5.40;;;;;;;25.52;55.03;98553.98;1870621;76;22112;-60
2021/08/29 12:09:16;;;;;;;6.75;4.83;;;;;;;25.42;55.17;98544.87;1870682;76;22212;-60
2021/08/29 12:11:53;;;;;;;10.63;6.42;;;;;;;25.38;55.23;98540.69;1870581;76;22105;-60
2021/08/29 12:15:10;;;;;;;7.62;5.47;;;;;;;25.39;55.30;98532.69;1870656;76;22109;-61
2021/08/29 12:17:51;;;;;;;9.85;4.95;;;;;;;25.38;55.38;98527.00;1870525;76;22129;-63
2021/08/29 12:20:27;;;;;;;12.20;6.87;;;;;;;25.39;55.53;98527.41;1870681;76;22601;-59
2021/08/29 12:23:07;;;;;;;7.65;5.40;;;;;;;25.49;55.61;98525.94;1854786;76;27919;-57
2021/08/29 12:25:42;;;;;;;15.63;4.92;;;;;;;25.64;55.33;98532.59;1889941;76;22120;-59
2021/08/29 12:28:19;;;;;;;7.85;5.55;;;;;;;25.60;55.29;98531.92;1889968;76;22180;-61
2021/08/29 12:30:56;;;;;;;9.13;5.90;;;;;;;25.55;55.49;98533.98;1870710;76;22202;-56
2021/08/29 12:33:32;;;;;;;10.35;5.47;;;;;;;25.52;55.80;98535.00;1870801;76;22555;-58
2021/08/29 12:36:12;;;;;;;8.28;5.72;;;;;;;25.51;55.96;98533.76;1834901;77;22152;-59
2021/08/29 12:38:55;;;;;;;10.63;5.22;;;;;;;25.52;56.11;98531.05;1870430;76;22551;-61
2021/08/29 12:41:30;;;;;;;9.83;5.28;;;;;;;25.59;56.29;98528.03;1870529;76;22551;-58
2021/08/29 12:44:06;;;;;;;13.00;5.83;;;;;;;25.63;56.32;98530.42;1870660;76;22145;-56
2021/08/29 12:46:41;;;;;;;11.53;5.28;;;;;;;25.71;56.28;98526.86;1870640;76;22176;-60
2021/08/29 12:49:16;;;;;;;10.08;5.47;;;;;;;25.77;56.14;98528.28;1870644;76;22141;-60
2021/08/29 12:52:21;;;;;;;10.82;5.95;;;;;;;25.81;55.98;98521.05;1870669;76;22113;-61